createdAt,value
2022-10-20T00:00:26.579Z,0
2022-10-20T00:05:42.474Z,0
2022-10-20T00:10:57.824Z,0
2022-10-20T00:11:47.800Z,0
2022-10-20T00:16:39.271Z,0
2022-10-20T00:17:04.768Z,0
2022-10-20T00:22:00.475Z,0
2022-10-20T00:22:22.698Z,0
2022-10-20T00:27:21.117Z,0
2022-10-20T00:27:42.251Z,0
2022-10-20T00:32:42.406Z,0
2022-10-20T00:42:42.461Z,0
2022-10-20T00:44:48.699Z,0
2022-10-20T00:49:38.746Z,0
2022-10-20T00:49:58.708Z,0
2022-10-20T00:55:00.693Z,0
2022-10-20T00:55:35.544Z,0
2022-10-20T01:10:27.116Z,0
2022-10-20T01:15:53.248Z,0
2022-10-20T01:16:13.220Z,0
2022-10-20T01:21:05.464Z,0
2022-10-20T01:24:56.366Z,0
2022-10-20T01:30:16.369Z,0
2022-10-20T01:36:18.745Z,0
2022-10-20T01:41:31.685Z,0
2022-10-20T02:13:54.659Z,0
2022-10-20T02:19:07.051Z,0
2022-10-20T02:24:18.721Z,0
2022-10-20T02:29:27.843Z,0
2022-10-20T02:34:42.803Z,0
2022-10-20T02:39:53.783Z,0
2022-10-20T02:45:22.088Z,0
2022-10-20T02:50:31.841Z,0
2022-10-20T02:55:40.970Z,0
2022-10-20T03:00:51.367Z,0
2022-10-20T03:06:03.057Z,0
2022-10-20T03:11:12.188Z,0
2022-10-20T03:16:22.559Z,0
2022-10-20T03:21:31.716Z,0
2022-10-20T03:26:41.459Z,0
2022-10-20T03:31:51.287Z,0
2022-10-20T03:37:00.971Z,0
2022-10-20T03:42:11.365Z,0
2022-10-20T03:47:21.758Z,0
2022-10-20T03:52:31.520Z,0
2022-10-20T03:57:46.138Z,0
2022-10-20T04:03:01.063Z,0
2022-10-20T04:08:16.554Z,0
2022-10-20T04:13:31.424Z,0
2022-10-20T04:18:47.617Z,0
2022-10-20T04:23:28.828Z,0
2022-10-20T04:28:37.282Z,0
2022-10-20T04:33:47.686Z,0
2022-10-20T04:38:57.442Z,0
2022-10-20T04:44:05.927Z,0
2022-10-20T04:49:15.662Z,0
2022-10-20T04:54:24.814Z,0
2022-10-20T04:59:35.215Z,0
2022-10-20T05:04:44.320Z,0
2022-10-20T05:09:54.706Z,0
2022-10-20T05:15:04.495Z,0
2022-10-20T05:20:18.436Z,0
2022-10-20T05:36:07.567Z,1
2022-10-20T05:41:25.015Z,3
2022-10-20T05:46:44.048Z,10
2022-10-20T05:51:15.627Z,16
2022-10-20T05:57:16.843Z,12
2022-10-20T06:07:51.087Z,16
2022-10-20T06:17:35.173Z,61
2022-10-20T06:22:07.287Z,82
2022-10-20T06:27:17.163Z,92
2022-10-20T06:32:34.107Z,109
2022-10-20T06:37:50.535Z,132
2022-10-20T06:43:07.247Z,158
2022-10-20T06:48:24.042Z,185
2022-10-20T06:53:44.061Z,215
2022-10-20T06:58:58.926Z,245
2022-10-20T07:04:17.120Z,269
2022-10-20T07:08:43.833Z,293
2022-10-20T07:13:38.720Z,318
2022-10-20T07:18:48.155Z,346
2022-10-20T07:23:56.978Z,370
2022-10-20T07:29:05.499Z,388
2022-10-20T07:34:28.301Z,402
2022-10-20T07:39:25.001Z,436
2022-10-20T07:44:34.110Z,489
2022-10-20T07:49:45.663Z,540
2022-10-20T07:55:38.851Z,599
2022-10-20T08:00:02.072Z,660
2022-10-20T08:05:11.210Z,757
2022-10-20T08:10:20.500Z,813
2022-10-20T08:15:30.113Z,1010
2022-10-20T08:20:39.242Z,971
2022-10-20T08:25:48.318Z,914
2022-10-20T08:30:56.847Z,866
2022-10-20T08:36:06.105Z,889
2022-10-20T08:41:17.618Z,891
2022-10-20T08:46:29.926Z,876
2022-10-20T08:52:00.241Z,953
2022-10-20T08:57:09.929Z,935
2022-10-20T09:02:19.043Z,1027
2022-10-20T09:07:29.448Z,946
2022-10-20T09:12:41.333Z,921
2022-10-20T09:18:09.180Z,882
2022-10-20T09:23:39.769Z,935
2022-10-20T09:28:27.264Z,902
2022-10-20T09:33:56.893Z,705
2022-10-20T09:38:58.347Z,677
2022-10-20T09:44:13.214Z,752
2022-10-20T09:49:28.062Z,935
2022-10-20T09:54:43.582Z,925
2022-10-20T10:00:01.345Z,814
2022-10-20T10:05:20.920Z,751
2022-10-20T10:10:32.149Z,728
2022-10-20T10:14:58.227Z,771
2022-10-20T10:19:56.637Z,829
2022-10-20T10:24:59.690Z,887
2022-10-20T10:30:08.805Z,817
2022-10-20T10:35:19.199Z,666
2022-10-20T10:40:34.116Z,493
2022-10-20T10:45:43.904Z,431
2022-10-20T10:50:54.882Z,425
2022-10-20T10:56:03.606Z,419
2022-10-20T11:01:14.596Z,491
2022-10-20T11:06:22.975Z,645
2022-10-20T11:11:32.679Z,739
2022-10-20T11:16:41.124Z,749
2022-10-20T11:21:34.883Z,866
2022-10-20T11:21:54.866Z,866
2022-10-20T11:26:51.043Z,657
2022-10-20T11:27:11.022Z,657
2022-10-20T11:32:11.944Z,596
2022-10-20T11:34:48.128Z,596
2022-10-20T11:40:03.200Z,285
2022-10-20T11:46:06.547Z,220
2022-10-20T11:47:02.726Z,220
2022-10-20T11:52:11.046Z,367
2022-10-20T11:53:03.001Z,367
2022-10-20T11:58:13.926Z,350
2022-10-20T11:58:46.453Z,350
2022-10-20T12:03:40.997Z,517
2022-10-20T12:04:25.647Z,517
2022-10-20T12:09:25.435Z,610
2022-10-20T12:15:35.204Z,549
2022-10-20T12:17:35.182Z,549
2022-10-20T12:22:05.824Z,536
2022-10-20T12:23:45.821Z,536
2022-10-20T12:33:49.602Z,350
2022-10-20T12:35:20.519Z,350
2022-10-20T12:40:30.244Z,321
2022-10-20T12:40:50.222Z,321
2022-10-20T12:45:50.880Z,334
2022-10-20T12:46:29.856Z,334
2022-10-20T12:51:38.452Z,263
2022-10-20T12:54:28.976Z,263
2022-10-20T13:05:03.984Z,231
2022-10-20T13:10:07.176Z,195
2022-10-20T13:13:35.674Z,195
2022-10-20T13:18:46.698Z,188
2022-10-20T13:25:52.789Z,321
2022-10-20T13:30:46.226Z,321
2022-10-20T13:36:04.290Z,456
2022-10-20T13:36:54.302Z,456
2022-10-20T13:41:05.747Z,551
2022-10-20T13:41:55.739Z,551
2022-10-20T13:46:16.453Z,548
2022-10-20T13:47:06.454Z,548
2022-10-20T13:50:56.841Z,457
2022-10-20T13:51:35.663Z,457
2022-10-20T13:56:45.165Z,500
2022-10-20T14:02:14.486Z,602
2022-10-20T14:02:50.803Z,602
2022-10-20T14:07:40.364Z,601
2022-10-20T14:09:54.646Z,601
2022-10-20T14:15:02.496Z,662
2022-10-20T14:23:03.425Z,728
2022-10-20T14:23:53.428Z,728
2022-10-20T14:28:20.246Z,571
2022-10-20T14:29:26.252Z,571
2022-10-20T14:34:35.046Z,723
2022-10-20T14:34:55.022Z,723
2022-10-20T14:39:53.756Z,843
2022-10-20T14:41:46.105Z,843
2022-10-20T14:46:55.576Z,764
2022-10-20T14:47:22.614Z,764
2022-10-20T14:52:14.045Z,686
2022-10-20T14:54:39.775Z,686
2022-10-20T14:59:57.237Z,585
2022-10-20T15:07:11.019Z,726
2022-10-20T15:10:28.928Z,726
2022-10-20T15:15:43.771Z,572
2022-10-20T15:21:56.655Z,495
2022-10-20T15:24:47.191Z,495
2022-10-20T15:29:56.031Z,250
2022-10-20T15:30:16.017Z,250
2022-10-20T15:35:13.473Z,204
2022-10-20T15:35:33.449Z,204
2022-10-20T15:40:34.083Z,184
2022-10-20T15:41:44.063Z,184
2022-10-20T15:45:56.646Z,156
2022-10-20T15:48:46.626Z,156
2022-10-20T15:53:35.027Z,102
2022-10-20T15:59:14.748Z,89
2022-10-20T15:59:55.985Z,89
2022-10-20T16:05:03.567Z,82
2022-10-20T16:07:03.471Z,82
2022-10-20T16:12:06.570Z,79
2022-10-20T16:19:40.673Z,146
2022-10-20T16:20:30.674Z,146
2022-10-20T16:24:55.538Z,64
2022-10-20T16:30:44.644Z,19
2022-10-20T16:35:30.413Z,19
2022-10-20T16:40:44.628Z,10
2022-10-20T16:46:08.822Z,3
2022-10-20T16:52:12.311Z,1
2022-10-20T16:59:16.008Z,0
2022-10-20T17:01:16.064Z,0
2022-10-20T17:05:26.908Z,0
2022-10-20T17:12:20.306Z,0
2022-10-20T17:17:35.445Z,0
2022-10-20T17:18:25.185Z,0
2022-10-20T17:22:45.281Z,0
2022-10-20T17:33:21.780Z,0
2022-10-20T17:39:26.886Z,0
2022-10-20T17:48:52.288Z,0
2022-10-20T17:54:03.351Z,0
2022-10-20T17:59:13.133Z,0
2022-10-20T18:03:34.818Z,0
2022-10-20T18:08:08.509Z,0
2022-10-20T18:13:18.893Z,0
2022-10-20T18:18:33.762Z,0
2022-10-20T18:23:42.242Z,0
2022-10-20T18:28:52.691Z,0
2022-10-20T18:34:07.613Z,0
2022-10-20T18:39:16.644Z,0
2022-10-20T18:44:26.822Z,0
2022-10-20T18:49:34.888Z,0
2022-10-20T18:54:47.207Z,0
2022-10-20T18:59:56.365Z,0
2022-10-20T19:05:04.807Z,0
2022-10-20T19:10:13.294Z,0
2022-10-20T19:15:22.397Z,0
2022-10-20T19:20:32.161Z,0
2022-10-20T19:25:40.642Z,0
2022-10-20T19:30:49.121Z,0
2022-10-20T19:35:58.239Z,0
2022-10-20T19:41:07.363Z,0
2022-10-20T19:46:16.510Z,0
2022-10-20T19:51:24.999Z,0
2022-10-20T19:56:34.726Z,0
2022-10-20T20:01:44.815Z,0
2022-10-20T20:07:02.679Z,0
2022-10-20T20:12:03.385Z,0
2022-10-20T20:17:13.771Z,0
2022-10-20T20:22:22.883Z,0
2022-10-20T20:27:32.643Z,0
2022-10-20T20:32:53.572Z,0
2022-10-20T20:38:39.187Z,0
2022-10-20T20:43:54.092Z,0
2022-10-20T20:54:27.201Z,0
2022-10-20T21:04:56.143Z,0
2022-10-20T21:10:11.695Z,0
2022-10-20T21:15:26.541Z,0
2022-10-20T21:20:41.453Z,0
2022-10-20T21:25:53.772Z,0
2022-10-20T21:31:04.138Z,0
2022-10-20T21:36:13.292Z,0
2022-10-20T21:39:44.170Z,0
2022-10-20T21:44:53.921Z,0
2022-10-20T21:50:03.043Z,0
2022-10-20T21:55:15.363Z,0
2022-10-20T22:00:25.151Z,0
2022-10-20T22:05:34.890Z,0
2022-10-20T22:10:45.295Z,0
2022-10-20T22:15:55.044Z,0
2022-10-20T22:21:03.517Z,0
2022-10-20T22:26:12.705Z,0
2022-10-20T22:31:21.759Z,0
2022-10-20T22:36:32.160Z,0
2022-10-20T22:41:41.925Z,0
2022-10-20T22:46:51.695Z,0
2022-10-20T22:52:00.184Z,0
2022-10-20T22:57:10.561Z,0
2022-10-20T23:02:23.517Z,0
2022-10-20T23:07:37.222Z,0
2022-10-20T23:12:45.606Z,0
2022-10-20T23:17:54.735Z,0
2022-10-20T23:23:04.481Z,0
2022-10-20T23:28:13.629Z,0
2022-10-20T23:33:22.727Z,0
2022-10-20T23:38:33.152Z,0
2022-10-20T23:43:41.609Z,0
2022-10-20T23:48:51.363Z,0
2022-10-20T23:54:27.997Z,0
2022-10-20T23:59:37.796Z,0
